sensor_id;sensor_type;location;lat;lon;timestamp;P1;durP1;ratioP1;P2;durP2;ratioP2
19521;SDS011;9905;52.126;5.596;2023-04-25T00:00:00;10.40;;;9.32;;
19521;SDS011;9905;52.126;5.596;2023-04-25T00:02:28;9.63;;;8.73;;
19521;SDS011;9905;52.126;5.596;2023-04-25T00:04:56;13.82;;;8.82;;
19521;SDS011;9905;52.126;5.596;2023-04-25T00:07:24;10.95;;;9.77;;
19521;SDS011;9905;52.126;5.596;2023-04-25T00:09:52;10.20;;;9.27;;
19521;SDS011;9905;52.126;5.596;2023-04-25T00:12:19;9.63;;;8.70;;
19521;SDS011;9905;52.126;5.596;2023-04-25T00:14:47;9.43;;;8.57;;
19521;SDS011;9905;52.126;5.596;2023-04-25T00:17:16;14.13;;;8.93;;
19521;SDS011;9905;52.126;5.596;2023-04-25T00:19:44;13.52;;;8.88;;
19521;SDS011;9905;52.126;5.596;2023-04-25T00:22:11;10.90;;;8.70;;
19521;SDS011;9905;52.126;5.596;2023-04-25T00:24:38;10.63;;;9.23;;
19521;SDS011;9905;52.126;5.596;2023-04-25T00:27:06;11.35;;;10.00;;
19521;SDS011;9905;52.126;5.596;2023-04-25T00:29:32;9.60;;;8.52;;
19521;SDS011;9905;52.126;5.596;2023-04-25T00:31:59;9.38;;;8.48;;
19521;SDS011;9905;52.126;5.596;2023-04-25T00:34:26;8.73;;;8.07;;
19521;SDS011;9905;52.126;5.596;2023-04-25T00:36:53;14.07;;;8.80;;
19521;SDS011;9905;52.126;5.596;2023-04-25T00:39:20;10.10;;;8.57;;
19521;SDS011;9905;52.126;5.596;2023-04-25T00:41:46;10.93;;;8.30;;
19521;SDS011;9905;52.126;5.596;2023-04-25T00:44:15;10.80;;;8.23;;
19521;SDS011;9905;52.126;5.596;2023-04-25T00:46:43;10.23;;;8.32;;
19521;SDS011;9905;52.126;5.596;2023-04-25T00:49:10;11.57;;;8.38;;
19521;SDS011;9905;52.126;5.596;2023-04-25T00:51:40;10.45;;;8.85;;
19521;SDS011;9905;52.126;5.596;2023-04-25T00:54:08;9.85;;;8.85;;
19521;SDS011;9905;52.126;5.596;2023-04-25T00:56:36;9.30;;;8.68;;
19521;SDS011;9905;52.126;5.596;2023-04-25T00:59:03;9.45;;;8.88;;
19521;SDS011;9905;52.126;5.596;2023-04-25T01:01:31;10.15;;;9.20;;
19521;SDS011;9905;52.126;5.596;2023-04-25T01:03:58;10.80;;;9.50;;
19521;SDS011;9905;52.126;5.596;2023-04-25T01:06:26;9.48;;;8.88;;
19521;SDS011;9905;52.126;5.596;2023-04-25T01:08:53;10.43;;;9.63;;
19521;SDS011;9905;52.126;5.596;2023-04-25T01:11:20;10.65;;;9.48;;
19521;SDS011;9905;52.126;5.596;2023-04-25T01:13:47;12.07;;;9.43;;
19521;SDS011;9905;52.126;5.596;2023-04-25T01:16:14;10.07;;;9.18;;
19521;SDS011;9905;52.126;5.596;2023-04-25T01:18:42;9.75;;;9.02;;
19521;SDS011;9905;52.126;5.596;2023-04-25T01:21:11;11.18;;;10.43;;
19521;SDS011;9905;52.126;5.596;2023-04-25T01:23:39;12.23;;;10.07;;
19521;SDS011;9905;52.126;5.596;2023-04-25T01:26:06;10.57;;;9.85;;
19521;SDS011;9905;52.126;5.596;2023-04-25T01:28:35;10.52;;;9.57;;
19521;SDS011;9905;52.126;5.596;2023-04-25T01:31:04;10.43;;;9.50;;
19521;SDS011;9905;52.126;5.596;2023-04-25T01:33:31;10.40;;;9.43;;
19521;SDS011;9905;52.126;5.596;2023-04-25T01:35:58;10.15;;;9.13;;
19521;SDS011;9905;52.126;5.596;2023-04-25T01:38:26;10.57;;;9.60;;
19521;SDS011;9905;52.126;5.596;2023-04-25T01:40:53;10.48;;;9.60;;
19521;SDS011;9905;52.126;5.596;2023-04-25T01:43:21;11.13;;;9.43;;
19521;SDS011;9905;52.126;5.596;2023-04-25T01:45:48;11.75;;;10.13;;
19521;SDS011;9905;52.126;5.596;2023-04-25T01:48:16;12.77;;;9.20;;
19521;SDS011;9905;52.126;5.596;2023-04-25T01:50:43;11.30;;;10.00;;
19521;SDS011;9905;52.126;5.596;2023-04-25T01:53:10;9.95;;;9.15;;
19521;SDS011;9905;52.126;5.596;2023-04-25T01:55:41;9.55;;;8.82;;
19521;SDS011;9905;52.126;5.596;2023-04-25T01:58:07;11.32;;;8.90;;
19521;SDS011;9905;52.126;5.596;2023-04-25T02:00:38;9.65;;;8.70;;
19521;SDS011;9905;52.126;5.596;2023-04-25T02:03:05;10.73;;;8.50;;
19521;SDS011;9905;52.126;5.596;2023-04-25T02:05:36;8.60;;;8.20;;
19521;SDS011;9905;52.126;5.596;2023-04-25T02:08:04;8.82;;;7.93;;
19521;SDS011;9905;52.126;5.596;2023-04-25T02:10:32;8.90;;;8.30;;
19521;SDS011;9905;52.126;5.596;2023-04-25T02:13:00;9.27;;;8.43;;
19521;SDS011;9905;52.126;5.596;2023-04-25T02:15:27;9.13;;;8.43;;
19521;SDS011;9905;52.126;5.596;2023-04-25T02:17:54;10.82;;;8.75;;
19521;SDS011;9905;52.126;5.596;2023-04-25T02:20:22;10.32;;;8.40;;
19521;SDS011;9905;52.126;5.596;2023-04-25T02:22:49;10.02;;;8.13;;
19521;SDS011;9905;52.126;5.596;2023-04-25T02:25:16;9.13;;;7.70;;
19521;SDS011;9905;52.126;5.596;2023-04-25T02:27:45;8.75;;;8.25;;
19521;SDS011;9905;52.126;5.596;2023-04-25T02:30:13;8.82;;;8.10;;
19521;SDS011;9905;52.126;5.596;2023-04-25T02:32:40;8.82;;;8.27;;
19521;SDS011;9905;52.126;5.596;2023-04-25T02:35:07;13.25;;;7.70;;
19521;SDS011;9905;52.126;5.596;2023-04-25T02:37:36;8.88;;;7.95;;
19521;SDS011;9905;52.126;5.596;2023-04-25T02:40:04;8.43;;;7.82;;
19521;SDS011;9905;52.126;5.596;2023-04-25T02:42:31;8.43;;;7.93;;
19521;SDS011;9905;52.126;5.596;2023-04-25T02:44:58;8.88;;;8.20;;
19521;SDS011;9905;52.126;5.596;2023-04-25T02:47:26;9.00;;;8.30;;
19521;SDS011;9905;52.126;5.596;2023-04-25T02:49:53;10.27;;;8.88;;
19521;SDS011;9905;52.126;5.596;2023-04-25T02:52:20;9.65;;;8.63;;
19521;SDS011;9905;52.126;5.596;2023-04-25T02:54:47;9.32;;;8.45;;
19521;SDS011;9905;52.126;5.596;2023-04-25T02:57:13;8.95;;;8.45;;
19521;SDS011;9905;52.126;5.596;2023-04-25T02:59:40;11.25;;;8.13;;
19521;SDS011;9905;52.126;5.596;2023-04-25T03:02:07;11.90;;;9.05;;
19521;SDS011;9905;52.126;5.596;2023-04-25T03:04:35;9.73;;;8.95;;
19521;SDS011;9905;52.126;5.596;2023-04-25T03:07:02;9.30;;;8.65;;
19521;SDS011;9905;52.126;5.596;2023-04-25T03:09:30;8.60;;;8.00;;
19521;SDS011;9905;52.126;5.596;2023-04-25T03:11:57;9.98;;;8.90;;
19521;SDS011;9905;52.126;5.596;2023-04-25T03:14:23;12.73;;;9.13;;
19521;SDS011;9905;52.126;5.596;2023-04-25T03:16:50;10.05;;;9.02;;
19521;SDS011;9905;52.126;5.596;2023-04-25T03:19:17;10.20;;;9.20;;
19521;SDS011;9905;52.126;5.596;2023-04-25T03:21:45;9.77;;;8.93;;
19521;SDS011;9905;52.126;5.596;2023-04-25T03:24:11;9.05;;;8.45;;
19521;SDS011;9905;52.126;5.596;2023-04-25T03:26:38;9.52;;;9.00;;
19521;SDS011;9905;52.126;5.596;2023-04-25T03:29:05;10.95;;;9.15;;
19521;SDS011;9905;52.126;5.596;2023-04-25T03:31:32;10.02;;;9.18;;
19521;SDS011;9905;52.126;5.596;2023-04-25T03:33:58;10.88;;;10.02;;
19521;SDS011;9905;52.126;5.596;2023-04-25T03:36:25;10.88;;;9.88;;
19521;SDS011;9905;52.126;5.596;2023-04-25T03:38:53;10.35;;;9.73;;
19521;SDS011;9905;52.126;5.596;2023-04-25T03:41:20;10.93;;;9.88;;
19521;SDS011;9905;52.126;5.596;2023-04-25T03:43:47;10.55;;;9.80;;
19521;SDS011;9905;52.126;5.596;2023-04-25T03:46:13;10.45;;;9.70;;
19521;SDS011;9905;52.126;5.596;2023-04-25T03:48:40;10.65;;;9.70;;
19521;SDS011;9905;52.126;5.596;2023-04-25T03:51:07;10.77;;;9.88;;
19521;SDS011;9905;52.126;5.596;2023-04-25T03:53:33;10.35;;;9.63;;
19521;SDS011;9905;52.126;5.596;2023-04-25T03:56:01;12.45;;;9.57;;
19521;SDS011;9905;52.126;5.596;2023-04-25T03:58:28;17.40;;;10.43;;
19521;SDS011;9905;52.126;5.596;2023-04-25T04:00:55;11.52;;;10.35;;
19521;SDS011;9905;52.126;5.596;2023-04-25T04:03:22;11.25;;;10.50;;
19521;SDS011;9905;52.126;5.596;2023-04-25T04:05:48;11.55;;;10.77;;
19521;SDS011;9905;52.126;5.596;2023-04-25T04:08:15;11.45;;;10.57;;
19521;SDS011;9905;52.126;5.596;2023-04-25T04:10:42;10.63;;;9.85;;
19521;SDS011;9905;52.126;5.596;2023-04-25T04:13:10;10.50;;;9.60;;
19521;SDS011;9905;52.126;5.596;2023-04-25T04:15:37;10.82;;;10.00;;
19521;SDS011;9905;52.126;5.596;2023-04-25T04:18:03;13.98;;;10.27;;
19521;SDS011;9905;52.126;5.596;2023-04-25T04:20:31;12.45;;;11.20;;
19521;SDS011;9905;52.126;5.596;2023-04-25T04:22:58;11.13;;;10.27;;
19521;SDS011;9905;52.126;5.596;2023-04-25T04:25:24;11.05;;;10.05;;
19521;SDS011;9905;52.126;5.596;2023-04-25T04:27:51;11.75;;;10.45;;
19521;SDS011;9905;52.126;5.596;2023-04-25T04:30:21;10.90;;;10.10;;
19521;SDS011;9905;52.126;5.596;2023-04-25T04:32:49;10.65;;;10.05;;
19521;SDS011;9905;52.126;5.596;2023-04-25T04:35:15;11.63;;;10.50;;
19521;SDS011;9905;52.126;5.596;2023-04-25T04:37:42;11.13;;;10.15;;
19521;SDS011;9905;52.126;5.596;2023-04-25T04:40:10;9.70;;;9.05;;
19521;SDS011;9905;52.126;5.596;2023-04-25T04:42:40;10.00;;;9.23;;
19521;SDS011;9905;52.126;5.596;2023-04-25T04:45:07;10.57;;;9.82;;
19521;SDS011;9905;52.126;5.596;2023-04-25T04:47:36;16.08;;;9.45;;
19521;SDS011;9905;52.126;5.596;2023-04-25T04:50:04;9.98;;;9.35;;
19521;SDS011;9905;52.126;5.596;2023-04-25T04:52:33;9.20;;;8.70;;
19521;SDS011;9905;52.126;5.596;2023-04-25T04:55:00;9.68;;;8.80;;
19521;SDS011;9905;52.126;5.596;2023-04-25T04:57:28;10.32;;;8.38;;
19521;SDS011;9905;52.126;5.596;2023-04-25T04:59:56;11.35;;;8.70;;
19521;SDS011;9905;52.126;5.596;2023-04-25T05:02:22;9.38;;;8.88;;
19521;SDS011;9905;52.126;5.596;2023-04-25T05:04:50;10.88;;;9.18;;
19521;SDS011;9905;52.126;5.596;2023-04-25T05:07:17;8.88;;;8.38;;
19521;SDS011;9905;52.126;5.596;2023-04-25T05:09:44;8.65;;;8.05;;
19521;SDS011;9905;52.126;5.596;2023-04-25T05:12:11;8.18;;;7.68;;
19521;SDS011;9905;52.126;5.596;2023-04-25T05:14:38;8.05;;;7.50;;
19521;SDS011;9905;52.126;5.596;2023-04-25T05:17:04;8.25;;;7.68;;
19521;SDS011;9905;52.126;5.596;2023-04-25T05:19:33;8.30;;;7.43;;
19521;SDS011;9905;52.126;5.596;2023-04-25T05:22:01;8.20;;;7.80;;
19521;SDS011;9905;52.126;5.596;2023-04-25T05:24:28;7.90;;;7.30;;
19521;SDS011;9905;52.126;5.596;2023-04-25T05:26:55;7.85;;;7.43;;
19521;SDS011;9905;52.126;5.596;2023-04-25T05:29:22;8.00;;;7.28;;
19521;SDS011;9905;52.126;5.596;2023-04-25T05:31:49;7.40;;;6.90;;
19521;SDS011;9905;52.126;5.596;2023-04-25T05:34:16;7.57;;;7.03;;
19521;SDS011;9905;52.126;5.596;2023-04-25T05:36:42;7.90;;;7.47;;
19521;SDS011;9905;52.126;5.596;2023-04-25T05:39:10;8.32;;;7.80;;
19521;SDS011;9905;52.126;5.596;2023-04-25T05:41:37;8.18;;;7.50;;
19521;SDS011;9905;52.126;5.596;2023-04-25T05:44:04;7.80;;;7.30;;
19521;SDS011;9905;52.126;5.596;2023-04-25T05:46:31;7.60;;;7.20;;
19521;SDS011;9905;52.126;5.596;2023-04-25T05:48:58;7.53;;;7.15;;
19521;SDS011;9905;52.126;5.596;2023-04-25T05:51:25;7.72;;;7.07;;
19521;SDS011;9905;52.126;5.596;2023-04-25T05:53:52;7.53;;;7.00;;
19521;SDS011;9905;52.126;5.596;2023-04-25T05:56:20;6.50;;;6.20;;
19521;SDS011;9905;52.126;5.596;2023-04-25T05:58:47;6.93;;;6.63;;
19521;SDS011;9905;52.126;5.596;2023-04-25T06:01:14;8.23;;;7.65;;
19521;SDS011;9905;52.126;5.596;2023-04-25T06:03:40;7.50;;;7.00;;
19521;SDS011;9905;52.126;5.596;2023-04-25T06:06:08;7.65;;;7.20;;
19521;SDS011;9905;52.126;5.596;2023-04-25T06:08:35;6.63;;;6.13;;
19521;SDS011;9905;52.126;5.596;2023-04-25T06:11:02;7.65;;;6.95;;
19521;SDS011;9905;52.126;5.596;2023-04-25T06:13:31;7.13;;;6.57;;
19521;SDS011;9905;52.126;5.596;2023-04-25T06:15:58;7.28;;;6.80;;
19521;SDS011;9905;52.126;5.596;2023-04-25T06:18:24;7.10;;;6.45;;
19521;SDS011;9905;52.126;5.596;2023-04-25T06:20:51;6.80;;;6.10;;
19521;SDS011;9905;52.126;5.596;2023-04-25T06:23:18;6.70;;;6.30;;
19521;SDS011;9905;52.126;5.596;2023-04-25T06:25:44;5.68;;;5.38;;
19521;SDS011;9905;52.126;5.596;2023-04-25T06:28:11;6.25;;;5.90;;
19521;SDS011;9905;52.126;5.596;2023-04-25T06:30:39;6.72;;;6.38;;
19521;SDS011;9905;52.126;5.596;2023-04-25T06:33:06;6.50;;;6.10;;
19521;SDS011;9905;52.126;5.596;2023-04-25T06:35:34;6.80;;;6.20;;
19521;SDS011;9905;52.126;5.596;2023-04-25T06:38:01;6.55;;;5.95;;
19521;SDS011;9905;52.126;5.596;2023-04-25T06:40:27;6.30;;;5.70;;
19521;SDS011;9905;52.126;5.596;2023-04-25T06:42:54;8.38;;;6.68;;
19521;SDS011;9905;52.126;5.596;2023-04-25T06:45:21;6.90;;;6.32;;
19521;SDS011;9905;52.126;5.596;2023-04-25T06:47:49;5.93;;;5.50;;
19521;SDS011;9905;52.126;5.596;2023-04-25T06:50:15;7.00;;;6.05;;
19521;SDS011;9905;52.126;5.596;2023-04-25T06:52:42;6.68;;;5.97;;
19521;SDS011;9905;52.126;5.596;2023-04-25T06:55:09;5.88;;;5.32;;
19521;SDS011;9905;52.126;5.596;2023-04-25T06:57:36;5.15;;;4.85;;
19521;SDS011;9905;52.126;5.596;2023-04-25T07:00:03;5.22;;;4.82;;
19521;SDS011;9905;52.126;5.596;2023-04-25T07:02:33;5.40;;;4.93;;
19521;SDS011;9905;52.126;5.596;2023-04-25T07:05:02;5.97;;;5.40;;
19521;SDS011;9905;52.126;5.596;2023-04-25T07:07:29;6.03;;;4.68;;
19521;SDS011;9905;52.126;5.596;2023-04-25T07:09:56;6.60;;;4.22;;
19521;SDS011;9905;52.126;5.596;2023-04-25T07:12:23;6.80;;;4.00;;
19521;SDS011;9905;52.126;5.596;2023-04-25T07:14:49;10.63;;;5.22;;
19521;SDS011;9905;52.126;5.596;2023-04-25T07:17:16;5.38;;;4.10;;
19521;SDS011;9905;52.126;5.596;2023-04-25T07:19:43;8.20;;;4.88;;
19521;SDS011;9905;52.126;5.596;2023-04-25T07:22:11;5.97;;;3.97;;
19521;SDS011;9905;52.126;5.596;2023-04-25T07:24:38;9.52;;;4.93;;
19521;SDS011;9905;52.126;5.596;2023-04-25T07:27:05;5.90;;;4.30;;
19521;SDS011;9905;52.126;5.596;2023-04-25T07:29:32;5.40;;;4.90;;
19521;SDS011;9905;52.126;5.596;2023-04-25T07:32:02;7.22;;;4.63;;
19521;SDS011;9905;52.126;5.596;2023-04-25T07:34:28;6.95;;;4.43;;
19521;SDS011;9905;52.126;5.596;2023-04-25T07:36:55;8.30;;;4.20;;
19521;SDS011;9905;52.126;5.596;2023-04-25T07:39:25;4.35;;;3.95;;
19521;SDS011;9905;52.126;5.596;2023-04-25T07:41:52;8.13;;;3.55;;
19521;SDS011;9905;52.126;5.596;2023-04-25T07:44:19;7.45;;;3.90;;
19521;SDS011;9905;52.126;5.596;2023-04-25T07:46:45;7.88;;;3.55;;
19521;SDS011;9905;52.126;5.596;2023-04-25T07:49:12;4.68;;;3.15;;
19521;SDS011;9905;52.126;5.596;2023-04-25T07:51:39;3.70;;;3.40;;
19521;SDS011;9905;52.126;5.596;2023-04-25T07:54:06;6.57;;;3.78;;
19521;SDS011;9905;52.126;5.596;2023-04-25T07:56:34;5.75;;;3.88;;
19521;SDS011;9905;52.126;5.596;2023-04-25T07:59:01;3.35;;;3.15;;
19521;SDS011;9905;52.126;5.596;2023-04-25T08:01:28;4.32;;;3.80;;
19521;SDS011;9905;52.126;5.596;2023-04-25T08:03:55;4.47;;;4.13;;
19521;SDS011;9905;52.126;5.596;2023-04-25T08:06:21;3.42;;;3.22;;
19521;SDS011;9905;52.126;5.596;2023-04-25T08:08:48;4.25;;;3.08;;
19521;SDS011;9905;52.126;5.596;2023-04-25T08:11:15;5.03;;;2.92;;
19521;SDS011;9905;52.126;5.596;2023-04-25T08:13:43;5.90;;;3.08;;
19521;SDS011;9905;52.126;5.596;2023-04-25T08:16:10;2.97;;;2.78;;
19521;SDS011;9905;52.126;5.596;2023-04-25T08:18:36;6.60;;;3.05;;
19521;SDS011;9905;52.126;5.596;2023-04-25T08:21:03;3.38;;;3.08;;
19521;SDS011;9905;52.126;5.596;2023-04-25T08:23:31;6.38;;;3.08;;
19521;SDS011;9905;52.126;5.596;2023-04-25T08:25:58;5.18;;;3.17;;
19521;SDS011;9905;52.126;5.596;2023-04-25T08:28:25;5.57;;;3.85;;
19521;SDS011;9905;52.126;5.596;2023-04-25T08:30:53;8.25;;;3.30;;
19521;SDS011;9905;52.126;5.596;2023-04-25T08:33:19;3.15;;;2.95;;
19521;SDS011;9905;52.126;5.596;2023-04-25T08:35:46;5.80;;;3.58;;
19521;SDS011;9905;52.126;5.596;2023-04-25T08:38:13;3.55;;;3.15;;
19521;SDS011;9905;52.126;5.596;2023-04-25T08:40:40;4.97;;;3.63;;
19521;SDS011;9905;52.126;5.596;2023-04-25T08:43:09;4.38;;;3.47;;
19521;SDS011;9905;52.126;5.596;2023-04-25T08:45:40;7.20;;;3.28;;
19521;SDS011;9905;52.126;5.596;2023-04-25T08:48:11;5.10;;;2.95;;
19521;SDS011;9905;52.126;5.596;2023-04-25T08:50:39;3.75;;;2.88;;
19521;SDS011;9905;52.126;5.596;2023-04-25T08:53:08;4.70;;;3.17;;
19521;SDS011;9905;52.126;5.596;2023-04-25T08:55:38;4.15;;;3.38;;
19521;SDS011;9905;52.126;5.596;2023-04-25T08:58:07;3.13;;;2.92;;
19521;SDS011;9905;52.126;5.596;2023-04-25T09:00:35;4.63;;;2.97;;
19521;SDS011;9905;52.126;5.596;2023-04-25T09:03:02;3.15;;;2.70;;
19521;SDS011;9905;52.126;5.596;2023-04-25T09:05:30;3.30;;;2.80;;
19521;SDS011;9905;52.126;5.596;2023-04-25T09:07:58;2.90;;;2.80;;
19521;SDS011;9905;52.126;5.596;2023-04-25T09:10:26;2.97;;;2.88;;
19521;SDS011;9905;52.126;5.596;2023-04-25T09:15:48;3.45;;;3.25;;
19521;SDS011;9905;52.126;5.596;2023-04-25T09:18:21;3.05;;;2.88;;
19521;SDS011;9905;52.126;5.596;2023-04-25T09:20:51;3.30;;;3.10;;
19521;SDS011;9905;52.126;5.596;2023-04-25T09:23:19;3.17;;;2.90;;
19521;SDS011;9905;52.126;5.596;2023-04-25T09:25:46;2.72;;;2.63;;
19521;SDS011;9905;52.126;5.596;2023-04-25T09:28:14;3.67;;;2.95;;
19521;SDS011;9905;52.126;5.596;2023-04-25T09:30:41;3.08;;;2.85;;
19521;SDS011;9905;52.126;5.596;2023-04-25T09:33:09;3.25;;;2.95;;
19521;SDS011;9905;52.126;5.596;2023-04-25T09:35:36;2.72;;;2.40;;
19521;SDS011;9905;52.126;5.596;2023-04-25T09:38:09;5.57;;;3.05;;
19521;SDS011;9905;52.126;5.596;2023-04-25T09:40:40;3.95;;;3.42;;
19521;SDS011;9905;52.126;5.596;2023-04-25T09:43:12;2.72;;;2.50;;
19521;SDS011;9905;52.126;5.596;2023-04-25T09:45:45;2.85;;;2.55;;
19521;SDS011;9905;52.126;5.596;2023-04-25T09:48:15;2.58;;;2.38;;
19521;SDS011;9905;52.126;5.596;2023-04-25T09:50:43;4.55;;;2.17;;
19521;SDS011;9905;52.126;5.596;2023-04-25T09:53:11;4.40;;;2.33;;
19521;SDS011;9905;52.126;5.596;2023-04-25T09:55:38;2.60;;;2.50;;
19521;SDS011;9905;52.126;5.596;2023-04-25T09:58:08;3.42;;;3.13;;
19521;SDS011;9905;52.126;5.596;2023-04-25T10:00:37;3.15;;;2.92;;
19521;SDS011;9905;52.126;5.596;2023-04-25T10:03:04;4.07;;;2.72;;
19521;SDS011;9905;52.126;5.596;2023-04-25T10:05:32;5.45;;;2.80;;
19521;SDS011;9905;52.126;5.596;2023-04-25T10:08:02;3.10;;;2.42;;
19521;SDS011;9905;52.126;5.596;2023-04-25T10:10:31;2.53;;;2.40;;
19521;SDS011;9905;52.126;5.596;2023-04-25T10:13:01;3.72;;;2.60;;
19521;SDS011;9905;52.126;5.596;2023-04-25T10:15:30;3.97;;;2.30;;
19521;SDS011;9905;52.126;5.596;2023-04-25T10:17:57;2.88;;;2.63;;
19521;SDS011;9905;52.126;5.596;2023-04-25T10:20:25;3.33;;;2.60;;
19521;SDS011;9905;52.126;5.596;2023-04-25T10:22:52;3.95;;;2.72;;
19521;SDS011;9905;52.126;5.596;2023-04-25T10:25:22;4.47;;;2.35;;
19521;SDS011;9905;52.126;5.596;2023-04-25T10:27:51;3.22;;;3.05;;
19521;SDS011;9905;52.126;5.596;2023-04-25T10:30:18;3.03;;;2.65;;
19521;SDS011;9905;52.126;5.596;2023-04-25T10:32:45;2.63;;;2.45;;
19521;SDS011;9905;52.126;5.596;2023-04-25T10:35:15;3.75;;;2.70;;
19521;SDS011;9905;52.126;5.596;2023-04-25T10:37:59;4.95;;;2.58;;
19521;SDS011;9905;52.126;5.596;2023-04-25T10:40:27;4.47;;;2.70;;
19521;SDS011;9905;52.126;5.596;2023-04-25T10:42:56;2.58;;;2.42;;
19521;SDS011;9905;52.126;5.596;2023-04-25T10:46:02;2.50;;;2.30;;
19521;SDS011;9905;52.126;5.596;2023-04-25T10:48:38;2.58;;;2.40;;
19521;SDS011;9905;52.126;5.596;2023-04-25T10:51:11;2.42;;;2.22;;
19521;SDS011;9905;52.126;5.596;2023-04-25T10:53:43;3.33;;;2.85;;
19521;SDS011;9905;52.126;5.596;2023-04-25T10:56:10;2.95;;;2.40;;
19521;SDS011;9905;52.126;5.596;2023-04-25T10:58:43;2.63;;;2.17;;
19521;SDS011;9905;52.126;5.596;2023-04-25T11:01:10;3.58;;;2.33;;
19521;SDS011;9905;52.126;5.596;2023-04-25T11:03:40;2.78;;;2.28;;
19521;SDS011;9905;52.126;5.596;2023-04-25T11:06:11;2.67;;;2.22;;
19521;SDS011;9905;52.126;5.596;2023-04-25T11:08:47;4.80;;;2.25;;
19521;SDS011;9905;52.126;5.596;2023-04-25T11:11:16;2.05;;;1.95;;
19521;SDS011;9905;52.126;5.596;2023-04-25T11:13:44;2.40;;;2.20;;
19521;SDS011;9905;52.126;5.596;2023-04-25T11:16:14;1.90;;;1.80;;
19521;SDS011;9905;52.126;5.596;2023-04-25T11:18:41;2.00;;;1.90;;
19521;SDS011;9905;52.126;5.596;2023-04-25T11:21:07;2.78;;;2.28;;
19521;SDS011;9905;52.126;5.596;2023-04-25T11:23:34;2.88;;;2.22;;
19521;SDS011;9905;52.126;5.596;2023-04-25T11:26:01;4.15;;;2.00;;
19521;SDS011;9905;52.126;5.596;2023-04-25T11:28:28;6.25;;;2.42;;
19521;SDS011;9905;52.126;5.596;2023-04-25T11:30:56;3.13;;;2.25;;
19521;SDS011;9905;52.126;5.596;2023-04-25T11:33:23;2.25;;;2.00;;
19521;SDS011;9905;52.126;5.596;2023-04-25T11:35:52;2.90;;;2.47;;
19521;SDS011;9905;52.126;5.596;2023-04-25T11:38:20;4.55;;;2.53;;
19521;SDS011;9905;52.126;5.596;2023-04-25T11:40:49;3.72;;;2.53;;
19521;SDS011;9905;52.126;5.596;2023-04-25T11:43:17;3.25;;;2.25;;
19521;SDS011;9905;52.126;5.596;2023-04-25T11:45:46;4.45;;;2.50;;
19521;SDS011;9905;52.126;5.596;2023-04-25T11:48:15;2.17;;;2.08;;
19521;SDS011;9905;52.126;5.596;2023-04-25T11:50:42;3.53;;;2.25;;
19521;SDS011;9905;52.126;5.596;2023-04-25T11:53:08;2.22;;;2.03;;
19521;SDS011;9905;52.126;5.596;2023-04-25T11:55:35;3.63;;;2.15;;
19521;SDS011;9905;52.126;5.596;2023-04-25T11:58:03;2.28;;;2.08;;
19521;SDS011;9905;52.126;5.596;2023-04-25T12:00:30;2.30;;;2.10;;
19521;SDS011;9905;52.126;5.596;2023-04-25T12:02:58;2.75;;;2.47;;
19521;SDS011;9905;52.126;5.596;2023-04-25T12:05:27;3.05;;;1.90;;
19521;SDS011;9905;52.126;5.596;2023-04-25T12:07:55;3.70;;;2.00;;
19521;SDS011;9905;52.126;5.596;2023-04-25T12:10:23;2.33;;;2.03;;
19521;SDS011;9905;52.126;5.596;2023-04-25T12:12:51;2.20;;;2.00;;
19521;SDS011;9905;52.126;5.596;2023-04-25T12:15:23;2.60;;;2.30;;
19521;SDS011;9905;52.126;5.596;2023-04-25T12:17:52;2.03;;;1.92;;
19521;SDS011;9905;52.126;5.596;2023-04-25T12:20:20;2.75;;;2.33;;
19521;SDS011;9905;52.126;5.596;2023-04-25T12:22:51;3.47;;;2.00;;
19521;SDS011;9905;52.126;5.596;2023-04-25T12:25:34;2.63;;;1.98;;
19521;SDS011;9905;52.126;5.596;2023-04-25T12:28:11;3.35;;;2.28;;
19521;SDS011;9905;52.126;5.596;2023-04-25T12:33:22;4.03;;;2.25;;
19521;SDS011;9905;52.126;5.596;2023-04-25T12:35:49;2.33;;;2.22;;
19521;SDS011;9905;52.126;5.596;2023-04-25T12:38:25;4.47;;;1.90;;
19521;SDS011;9905;52.126;5.596;2023-04-25T12:40:52;3.58;;;2.10;;
19521;SDS011;9905;52.126;5.596;2023-04-25T12:43:20;2.33;;;2.13;;
19521;SDS011;9905;52.126;5.596;2023-04-25T12:45:47;3.05;;;2.10;;
19521;SDS011;9905;52.126;5.596;2023-04-25T12:48:14;2.90;;;1.92;;
19521;SDS011;9905;52.126;5.596;2023-04-25T12:50:41;3.75;;;2.00;;
19521;SDS011;9905;52.126;5.596;2023-04-25T12:53:08;4.30;;;2.00;;
19521;SDS011;9905;52.126;5.596;2023-04-25T12:55:36;2.08;;;1.80;;
19521;SDS011;9905;52.126;5.596;2023-04-25T12:58:03;1.65;;;1.65;;
19521;SDS011;9905;52.126;5.596;2023-04-25T13:00:30;2.00;;;1.88;;
19521;SDS011;9905;52.126;5.596;2023-04-25T13:02:57;1.98;;;1.88;;
19521;SDS011;9905;52.126;5.596;2023-04-25T13:05:24;1.95;;;1.75;;
19521;SDS011;9905;52.126;5.596;2023-04-25T13:07:51;2.40;;;2.00;;
19521;SDS011;9905;52.126;5.596;2023-04-25T13:10:18;2.92;;;1.60;;
19521;SDS011;9905;52.126;5.596;2023-04-25T13:12:46;1.92;;;1.83;;
19521;SDS011;9905;52.126;5.596;2023-04-25T13:15:13;1.88;;;1.60;;
19521;SDS011;9905;52.126;5.596;2023-04-25T13:17:40;1.70;;;1.60;;
19521;SDS011;9905;52.126;5.596;2023-04-25T13:20:08;2.67;;;2.25;;
19521;SDS011;9905;52.126;5.596;2023-04-25T13:22:35;2.50;;;1.88;;
19521;SDS011;9905;52.126;5.596;2023-04-25T13:25:04;1.88;;;1.77;;
19521;SDS011;9905;52.126;5.596;2023-04-25T13:27:32;1.88;;;1.77;;
19521;SDS011;9905;52.126;5.596;2023-04-25T13:30:00;3.22;;;1.58;;
19521;SDS011;9905;52.126;5.596;2023-04-25T13:32:32;3.65;;;1.95;;
19521;SDS011;9905;52.126;5.596;2023-04-25T13:34:59;3.10;;;1.98;;
19521;SDS011;9905;52.126;5.596;2023-04-25T13:37:25;2.10;;;1.85;;
19521;SDS011;9905;52.126;5.596;2023-04-25T13:39:52;1.70;;;1.60;;
19521;SDS011;9905;52.126;5.596;2023-04-25T13:42:20;2.97;;;2.22;;
19521;SDS011;9905;52.126;5.596;2023-04-25T13:44:47;2.30;;;2.15;;
19521;SDS011;9905;52.126;5.596;2023-04-25T13:47:15;2.67;;;2.10;;
19521;SDS011;9905;52.126;5.596;2023-04-25T13:49:41;6.22;;;2.03;;
19521;SDS011;9905;52.126;5.596;2023-04-25T13:52:08;4.35;;;2.17;;
19521;SDS011;9905;52.126;5.596;2023-04-25T13:54:35;4.63;;;2.13;;
19521;SDS011;9905;52.126;5.596;2023-04-25T13:57:02;2.95;;;1.90;;
19521;SDS011;9905;52.126;5.596;2023-04-25T13:59:28;2.78;;;2.20;;
19521;SDS011;9905;52.126;5.596;2023-04-25T14:01:55;4.32;;;1.92;;
19521;SDS011;9905;52.126;5.596;2023-04-25T14:04:23;2.28;;;2.03;;
19521;SDS011;9905;52.126;5.596;2023-04-25T14:06:51;3.25;;;1.85;;
19521;SDS011;9905;52.126;5.596;2023-04-25T14:09:18;5.05;;;1.90;;
19521;SDS011;9905;52.126;5.596;2023-04-25T14:11:45;2.38;;;1.90;;
19521;SDS011;9905;52.126;5.596;2023-04-25T14:14:12;2.67;;;1.77;;
19521;SDS011;9905;52.126;5.596;2023-04-25T14:16:41;3.30;;;2.17;;
19521;SDS011;9905;52.126;5.596;2023-04-25T14:19:08;3.55;;;1.98;;
19521;SDS011;9905;52.126;5.596;2023-04-25T14:21:36;4.30;;;2.10;;
19521;SDS011;9905;52.126;5.596;2023-04-25T14:24:02;2.30;;;2.15;;
19521;SDS011;9905;52.126;5.596;2023-04-25T14:26:30;2.17;;;1.92;;
19521;SDS011;9905;52.126;5.596;2023-04-25T14:28:56;1.80;;;1.70;;
19521;SDS011;9905;52.126;5.596;2023-04-25T14:31:23;2.10;;;1.90;;
19521;SDS011;9905;52.126;5.596;2023-04-25T14:33:50;3.33;;;2.10;;
19521;SDS011;9905;52.126;5.596;2023-04-25T14:36:17;2.63;;;2.40;;
19521;SDS011;9905;52.126;5.596;2023-04-25T14:38:45;2.97;;;2.17;;
19521;SDS011;9905;52.126;5.596;2023-04-25T14:41:12;2.58;;;2.42;;
19521;SDS011;9905;52.126;5.596;2023-04-25T14:43:39;2.30;;;2.10;;
19521;SDS011;9905;52.126;5.596;2023-04-25T14:46:06;3.78;;;2.22;;
19521;SDS011;9905;52.126;5.596;2023-04-25T14:48:33;6.78;;;2.13;;
19521;SDS011;9905;52.126;5.596;2023-04-25T14:51:00;2.28;;;2.17;;
19521;SDS011;9905;52.126;5.596;2023-04-25T14:53:27;4.05;;;1.90;;
19521;SDS011;9905;52.126;5.596;2023-04-25T14:55:55;4.55;;;2.05;;
19521;SDS011;9905;52.126;5.596;2023-04-25T14:58:22;1.73;;;1.63;;
19521;SDS011;9905;52.126;5.596;2023-04-25T15:00:48;2.83;;;2.00;;
19521;SDS011;9905;52.126;5.596;2023-04-25T15:03:16;2.42;;;2.00;;
19521;SDS011;9905;52.126;5.596;2023-04-25T15:05:43;3.00;;;2.15;;